sensor_id;sensor_type;location;lat;lon;timestamp;P1;durP1;ratioP1;P2;durP2;ratioP2
52708;SDS011;38606;52.986;6.980;2023-01-04T00:02:03;11.13;;;3.28;;
52708;SDS011;38606;52.986;6.980;2023-01-04T00:04:28;10.10;;;2.63;;
52708;SDS011;38606;52.986;6.980;2023-01-04T00:06:54;8.60;;;2.40;;
52708;SDS011;38606;52.986;6.980;2023-01-04T00:09:20;5.05;;;2.17;;
52708;SDS011;38606;52.986;6.980;2023-01-04T00:11:46;5.07;;;2.10;;
52708;SDS011;38606;52.986;6.980;2023-01-04T00:14:12;8.75;;;2.53;;
52708;SDS011;38606;52.986;6.980;2023-01-04T00:16:38;8.27;;;2.38;;
52708;SDS011;38606;52.986;6.980;2023-01-04T00:19:04;10.10;;;2.55;;
52708;SDS011;38606;52.986;6.980;2023-01-04T00:21:30;9.82;;;2.40;;
52708;SDS011;38606;52.986;6.980;2023-01-04T00:23:56;11.80;;;2.40;;
52708;SDS011;38606;52.986;6.980;2023-01-04T00:26:25;9.80;;;2.58;;
52708;SDS011;38606;52.986;6.980;2023-01-04T00:29:02;9.93;;;2.50;;
52708;SDS011;38606;52.986;6.980;2023-01-04T00:31:30;8.60;;;2.53;;
52708;SDS011;38606;52.986;6.980;2023-01-04T00:33:57;13.52;;;3.08;;
52708;SDS011;38606;52.986;6.980;2023-01-04T00:36:25;13.27;;;2.33;;
52708;SDS011;38606;52.986;6.980;2023-01-04T00:38:51;10.55;;;2.42;;
52708;SDS011;38606;52.986;6.980;2023-01-04T00:41:34;6.95;;;2.10;;
52708;SDS011;38606;52.986;6.980;2023-01-04T00:44:00;7.82;;;2.50;;
52708;SDS011;38606;52.986;6.980;2023-01-04T00:46:27;7.22;;;2.30;;
52708;SDS011;38606;52.986;6.980;2023-01-04T00:48:53;10.38;;;2.45;;
52708;SDS011;38606;52.986;6.980;2023-01-04T00:51:19;7.78;;;2.42;;
52708;SDS011;38606;52.986;6.980;2023-01-04T00:53:45;4.95;;;1.85;;
52708;SDS011;38606;52.986;6.980;2023-01-04T00:56:10;11.25;;;2.60;;
52708;SDS011;38606;52.986;6.980;2023-01-04T00:58:36;10.68;;;2.60;;
52708;SDS011;38606;52.986;6.980;2023-01-04T01:01:05;8.70;;;2.15;;
52708;SDS011;38606;52.986;6.980;2023-01-04T01:03:32;9.43;;;2.30;;
52708;SDS011;38606;52.986;6.980;2023-01-04T01:06:02;7.25;;;2.05;;
52708;SDS011;38606;52.986;6.980;2023-01-04T01:08:29;8.27;;;3.05;;
52708;SDS011;38606;52.986;6.980;2023-01-04T01:11:00;9.45;;;2.45;;
52708;SDS011;38606;52.986;6.980;2023-01-04T01:13:29;8.77;;;3.03;;
52708;SDS011;38606;52.986;6.980;2023-01-04T01:15:55;11.45;;;2.30;;
52708;SDS011;38606;52.986;6.980;2023-01-04T01:18:27;5.63;;;2.45;;
52708;SDS011;38606;52.986;6.980;2023-01-04T01:20:53;7.07;;;2.13;;
52708;SDS011;38606;52.986;6.980;2023-01-04T01:23:18;6.78;;;2.20;;
52708;SDS011;38606;52.986;6.980;2023-01-04T01:25:44;6.68;;;2.67;;
52708;SDS011;38606;52.986;6.980;2023-01-04T01:28:10;7.50;;;2.35;;
52708;SDS011;38606;52.986;6.980;2023-01-04T01:30:42;9.77;;;2.40;;
52708;SDS011;38606;52.986;6.980;2023-01-04T01:33:08;5.00;;;2.25;;
52708;SDS011;38606;52.986;6.980;2023-01-04T01:35:34;10.38;;;2.60;;
52708;SDS011;38606;52.986;6.980;2023-01-04T01:38:00;6.78;;;2.42;;
52708;SDS011;38606;52.986;6.980;2023-01-04T01:40:27;7.97;;;2.58;;
52708;SDS011;38606;52.986;6.980;2023-01-04T01:42:53;6.88;;;2.15;;
52708;SDS011;38606;52.986;6.980;2023-01-04T01:45:32;6.82;;;2.33;;
52708;SDS011;38606;52.986;6.980;2023-01-04T01:48:00;10.25;;;2.60;;
52708;SDS011;38606;52.986;6.980;2023-01-04T01:51:18;4.35;;;2.33;;
52708;SDS011;38606;52.986;6.980;2023-01-04T01:53:24;10.00;;;2.30;;
52708;SDS011;38606;52.986;6.980;2023-01-04T01:55:52;6.22;;;2.40;;
52708;SDS011;38606;52.986;6.980;2023-01-04T01:58:22;6.07;;;2.45;;
52708;SDS011;38606;52.986;6.980;2023-01-04T02:00:54;6.65;;;2.40;;
52708;SDS011;38606;52.986;6.980;2023-01-04T02:03:20;6.95;;;2.63;;
52708;SDS011;38606;52.986;6.980;2023-01-04T02:05:51;8.10;;;2.63;;
52708;SDS011;38606;52.986;6.980;2023-01-04T02:08:19;7.78;;;2.20;;
52708;SDS011;38606;52.986;6.980;2023-01-04T02:10:46;8.02;;;2.95;;
52708;SDS011;38606;52.986;6.980;2023-01-04T02:13:14;7.55;;;2.90;;
52708;SDS011;38606;52.986;6.980;2023-01-04T02:18:32;10.45;;;2.67;;
52708;SDS011;38606;52.986;6.980;2023-01-04T02:21:09;10.05;;;2.78;;
52708;SDS011;38606;52.986;6.980;2023-01-04T02:34:22;8.10;;;2.67;;
52708;SDS011;38606;52.986;6.980;2023-01-04T02:39:38;5.22;;;2.40;;
52708;SDS011;38606;52.986;6.980;2023-01-04T02:42:31;4.45;;;2.47;;
52708;SDS011;38606;52.986;6.980;2023-01-04T02:45:40;4.97;;;2.50;;
52708;SDS011;38606;52.986;6.980;2023-01-04T02:48:10;6.75;;;2.22;;
52708;SDS011;38606;52.986;6.980;2023-01-04T02:50:55;6.07;;;2.20;;
52708;SDS011;38606;52.986;6.980;2023-01-04T02:53:24;2.80;;;2.08;;
52708;SDS011;38606;52.986;6.980;2023-01-04T03:10:04;3.33;;;2.20;;
52708;SDS011;38606;52.986;6.980;2023-01-04T03:12:53;5.25;;;2.00;;
52708;SDS011;38606;52.986;6.980;2023-01-04T03:15:27;4.80;;;2.00;;
52708;SDS011;38606;52.986;6.980;2023-01-04T03:20:27;5.00;;;2.10;;
52708;SDS011;38606;52.986;6.980;2023-01-04T03:22:56;4.68;;;2.50;;
52708;SDS011;38606;52.986;6.980;2023-01-04T03:25:45;4.47;;;2.40;;
52708;SDS011;38606;52.986;6.980;2023-01-04T03:28:50;3.90;;;1.98;;
52708;SDS011;38606;52.986;6.980;2023-01-04T03:31:48;3.65;;;2.10;;
52708;SDS011;38606;52.986;6.980;2023-01-04T03:34:40;4.30;;;2.20;;
52708;SDS011;38606;52.986;6.980;2023-01-04T03:37:28;4.75;;;2.30;;
52708;SDS011;38606;52.986;6.980;2023-01-04T03:43:15;6.50;;;2.00;;
52708;SDS011;38606;52.986;6.980;2023-01-04T03:46:13;3.72;;;1.73;;
52708;SDS011;38606;52.986;6.980;2023-01-04T03:49:12;4.70;;;1.90;;
52708;SDS011;38606;52.986;6.980;2023-01-04T03:51:47;3.70;;;1.90;;
52708;SDS011;38606;52.986;6.980;2023-01-04T03:54:18;7.07;;;1.90;;
52708;SDS011;38606;52.986;6.980;2023-01-04T03:56:50;3.63;;;2.10;;
52708;SDS011;38606;52.986;6.980;2023-01-04T03:59:18;2.38;;;2.10;;
52708;SDS011;38606;52.986;6.980;2023-01-04T04:01:46;4.10;;;2.05;;
52708;SDS011;38606;52.986;6.980;2023-01-04T04:04:12;4.10;;;2.20;;
52708;SDS011;38606;52.986;6.980;2023-01-04T04:06:57;3.95;;;1.77;;
52708;SDS011;38606;52.986;6.980;2023-01-04T04:09:41;3.30;;;2.00;;
52708;SDS011;38606;52.986;6.980;2023-01-04T04:12:07;3.65;;;2.33;;
52708;SDS011;38606;52.986;6.980;2023-01-04T04:14:33;2.35;;;1.70;;
52708;SDS011;38606;52.986;6.980;2023-01-04T04:16:59;2.25;;;1.90;;
52708;SDS011;38606;52.986;6.980;2023-01-04T04:19:24;3.28;;;2.08;;
52708;SDS011;38606;52.986;6.980;2023-01-04T04:21:50;6.57;;;2.00;;
52708;SDS011;38606;52.986;6.980;2023-01-04T04:24:17;4.35;;;1.90;;
52708;SDS011;38606;52.986;6.980;2023-01-04T04:26:44;3.15;;;1.92;;
52708;SDS011;38606;52.986;6.980;2023-01-04T04:29:10;5.90;;;1.90;;
52708;SDS011;38606;52.986;6.980;2023-01-04T04:31:36;4.80;;;2.03;;
52708;SDS011;38606;52.986;6.980;2023-01-04T04:34:02;2.33;;;1.83;;
52708;SDS011;38606;52.986;6.980;2023-01-04T04:36:27;2.58;;;1.95;;
52708;SDS011;38606;52.986;6.980;2023-01-04T04:38:53;2.30;;;1.77;;
52708;SDS011;38606;52.986;6.980;2023-01-04T04:41:19;3.90;;;2.17;;
52708;SDS011;38606;52.986;6.980;2023-01-04T04:46:29;5.32;;;1.80;;
52708;SDS011;38606;52.986;6.980;2023-01-04T04:48:55;2.08;;;1.73;;
52708;SDS011;38606;52.986;6.980;2023-01-04T04:51:21;2.88;;;1.80;;
52708;SDS011;38606;52.986;6.980;2023-01-04T04:53:46;2.83;;;1.80;;
52708;SDS011;38606;52.986;6.980;2023-01-04T04:56:12;3.05;;;1.60;;
52708;SDS011;38606;52.986;6.980;2023-01-04T04:58:38;3.17;;;1.80;;
52708;SDS011;38606;52.986;6.980;2023-01-04T05:01:04;1.77;;;1.58;;
52708;SDS011;38606;52.986;6.980;2023-01-04T05:03:30;2.95;;;1.95;;
52708;SDS011;38606;52.986;6.980;2023-01-04T05:05:56;1.77;;;1.50;;
52708;SDS011;38606;52.986;6.980;2023-01-04T05:08:22;1.50;;;1.40;;
52708;SDS011;38606;52.986;6.980;2023-01-04T05:10:47;2.25;;;1.50;;
52708;SDS011;38606;52.986;6.980;2023-01-04T05:13:13;1.50;;;1.40;;
52708;SDS011;38606;52.986;6.980;2023-01-04T05:15:40;2.10;;;1.40;;
52708;SDS011;38606;52.986;6.980;2023-01-04T05:18:07;1.60;;;1.50;;
52708;SDS011;38606;52.986;6.980;2023-01-04T05:20:34;1.90;;;1.60;;
52708;SDS011;38606;52.986;6.980;2023-01-04T05:23:00;2.92;;;1.92;;
52708;SDS011;38606;52.986;6.980;2023-01-04T05:25:26;3.15;;;2.10;;
52708;SDS011;38606;52.986;6.980;2023-01-04T05:27:51;2.78;;;2.40;;
52708;SDS011;38606;52.986;6.980;2023-01-04T05:30:17;2.50;;;2.20;;
52708;SDS011;38606;52.986;6.980;2023-01-04T05:33:02;3.58;;;2.40;;
52708;SDS011;38606;52.986;6.980;2023-01-04T05:35:28;3.30;;;2.35;;
52708;SDS011;38606;52.986;6.980;2023-01-04T05:37:54;4.85;;;2.78;;
52708;SDS011;38606;52.986;6.980;2023-01-04T05:40:20;2.97;;;2.70;;
52708;SDS011;38606;52.986;6.980;2023-01-04T05:42:46;3.10;;;2.80;;
52708;SDS011;38606;52.986;6.980;2023-01-04T05:45:13;3.60;;;3.08;;
52708;SDS011;38606;52.986;6.980;2023-01-04T05:47:39;8.43;;;3.33;;
52708;SDS011;38606;52.986;6.980;2023-01-04T05:50:05;4.43;;;3.20;;
52708;SDS011;38606;52.986;6.980;2023-01-04T05:52:32;6.22;;;3.28;;
52708;SDS011;38606;52.986;6.980;2023-01-04T05:54:58;5.63;;;4.05;;
52708;SDS011;38606;52.986;6.980;2023-01-04T05:57:24;4.47;;;3.70;;
52708;SDS011;38606;52.986;6.980;2023-01-04T05:59:50;5.13;;;3.90;;
52708;SDS011;38606;52.986;6.980;2023-01-04T06:02:16;5.25;;;4.25;;
52708;SDS011;38606;52.986;6.980;2023-01-04T06:04:44;4.47;;;4.07;;
52708;SDS011;38606;52.986;6.980;2023-01-04T06:07:10;5.88;;;4.15;;
52708;SDS011;38606;52.986;6.980;2023-01-04T06:09:36;6.10;;;4.63;;
52708;SDS011;38606;52.986;6.980;2023-01-04T06:12:01;5.60;;;4.40;;
52708;SDS011;38606;52.986;6.980;2023-01-04T06:14:27;5.32;;;4.10;;
52708;SDS011;38606;52.986;6.980;2023-01-04T06:16:53;5.13;;;4.60;;
52708;SDS011;38606;52.986;6.980;2023-01-04T06:19:19;8.43;;;4.70;;
52708;SDS011;38606;52.986;6.980;2023-01-04T06:21:44;7.22;;;4.30;;
52708;SDS011;38606;52.986;6.980;2023-01-04T06:24:10;4.97;;;4.40;;
52708;SDS011;38606;52.986;6.980;2023-01-04T06:26:36;4.85;;;3.97;;
52708;SDS011;38606;52.986;6.980;2023-01-04T06:29:02;7.32;;;4.22;;
52708;SDS011;38606;52.986;6.980;2023-01-04T06:31:28;6.90;;;4.68;;
52708;SDS011;38606;52.986;6.980;2023-01-04T06:33:54;6.05;;;4.00;;
52708;SDS011;38606;52.986;6.980;2023-01-04T06:36:20;4.30;;;3.90;;
52708;SDS011;38606;52.986;6.980;2023-01-04T06:38:47;7.22;;;4.32;;
52708;SDS011;38606;52.986;6.980;2023-01-04T06:41:13;7.15;;;4.10;;
52708;SDS011;38606;52.986;6.980;2023-01-04T06:43:39;5.10;;;4.55;;
52708;SDS011;38606;52.986;6.980;2023-01-04T06:46:04;7.20;;;4.28;;
52708;SDS011;38606;52.986;6.980;2023-01-04T06:48:33;7.28;;;4.05;;
52708;SDS011;38606;52.986;6.980;2023-01-04T06:50:58;5.63;;;4.32;;
52708;SDS011;38606;52.986;6.980;2023-01-04T06:53:24;5.38;;;4.20;;
52708;SDS011;38606;52.986;6.980;2023-01-04T06:55:50;5.68;;;4.45;;
52708;SDS011;38606;52.986;6.980;2023-01-04T06:58:16;6.07;;;3.97;;
52708;SDS011;38606;52.986;6.980;2023-01-04T07:00:41;5.75;;;3.20;;
52708;SDS011;38606;52.986;6.980;2023-01-04T07:03:07;3.45;;;3.00;;
52708;SDS011;38606;52.986;6.980;2023-01-04T07:05:33;3.85;;;3.45;;
52708;SDS011;38606;52.986;6.980;2023-01-04T07:08:00;3.20;;;2.60;;
52708;SDS011;38606;52.986;6.980;2023-01-04T07:10:29;3.28;;;2.65;;
52708;SDS011;38606;52.986;6.980;2023-01-04T07:12:54;3.47;;;2.13;;
52708;SDS011;38606;52.986;6.980;2023-01-04T07:15:20;2.60;;;2.40;;
52708;SDS011;38606;52.986;6.980;2023-01-04T07:17:50;2.95;;;2.10;;
52708;SDS011;38606;52.986;6.980;2023-01-04T07:20:16;2.38;;;1.85;;
52708;SDS011;38606;52.986;6.980;2023-01-04T07:22:42;2.30;;;2.10;;
52708;SDS011;38606;52.986;6.980;2023-01-04T07:25:08;2.28;;;2.08;;
52708;SDS011;38606;52.986;6.980;2023-01-04T07:27:33;3.13;;;2.33;;
52708;SDS011;38606;52.986;6.980;2023-01-04T07:29:59;2.92;;;2.20;;
52708;SDS011;38606;52.986;6.980;2023-01-04T07:32:25;2.53;;;2.33;;
52708;SDS011;38606;52.986;6.980;2023-01-04T07:34:50;3.20;;;2.20;;
52708;SDS011;38606;52.986;6.980;2023-01-04T07:37:16;2.10;;;1.90;;
52708;SDS011;38606;52.986;6.980;2023-01-04T07:39:42;2.42;;;2.10;;
52708;SDS011;38606;52.986;6.980;2023-01-04T07:42:08;4.03;;;2.15;;
52708;SDS011;38606;52.986;6.980;2023-01-04T07:44:35;2.28;;;2.00;;
52708;SDS011;38606;52.986;6.980;2023-01-04T07:47:00;2.20;;;2.00;;
52708;SDS011;38606;52.986;6.980;2023-01-04T07:49:27;1.77;;;1.67;;
52708;SDS011;38606;52.986;6.980;2023-01-04T07:51:53;2.47;;;2.28;;
52708;SDS011;38606;52.986;6.980;2023-01-04T07:54:18;2.22;;;2.03;;
52708;SDS011;38606;52.986;6.980;2023-01-04T07:56:45;3.15;;;2.38;;
52708;SDS011;38606;52.986;6.980;2023-01-04T07:59:12;2.25;;;2.05;;
52708;SDS011;38606;52.986;6.980;2023-01-04T08:01:39;2.03;;;1.92;;
52708;SDS011;38606;52.986;6.980;2023-01-04T08:04:09;3.10;;;1.92;;
52708;SDS011;38606;52.986;6.980;2023-01-04T08:06:36;3.50;;;2.20;;
52708;SDS011;38606;52.986;6.980;2023-01-04T08:09:05;1.90;;;1.80;;
52708;SDS011;38606;52.986;6.980;2023-01-04T08:11:31;2.95;;;2.28;;
52708;SDS011;38606;52.986;6.980;2023-01-04T08:13:57;2.00;;;1.80;;
52708;SDS011;38606;52.986;6.980;2023-01-04T08:16:24;3.00;;;1.77;;
52708;SDS011;38606;52.986;6.980;2023-01-04T08:18:57;2.20;;;2.00;;
52708;SDS011;38606;52.986;6.980;2023-01-04T08:21:25;2.50;;;1.98;;
52708;SDS011;38606;52.986;6.980;2023-01-04T08:23:53;1.92;;;1.83;;
52708;SDS011;38606;52.986;6.980;2023-01-04T08:26:19;3.17;;;2.05;;
52708;SDS011;38606;52.986;6.980;2023-01-04T08:28:45;2.00;;;1.80;;
52708;SDS011;38606;52.986;6.980;2023-01-04T08:31:15;2.35;;;2.10;;
52708;SDS011;38606;52.986;6.980;2023-01-04T08:33:45;1.75;;;1.65;;
52708;SDS011;38606;52.986;6.980;2023-01-04T08:36:15;3.65;;;2.10;;
52708;SDS011;38606;52.986;6.980;2023-01-04T08:38:46;1.98;;;1.80;;
52708;SDS011;38606;52.986;6.980;2023-01-04T08:41:12;2.10;;;1.90;;
52708;SDS011;38606;52.986;6.980;2023-01-04T08:43:39;2.55;;;2.13;;
52708;SDS011;38606;52.986;6.980;2023-01-04T08:46:05;3.30;;;2.20;;
52708;SDS011;38606;52.986;6.980;2023-01-04T08:48:31;3.00;;;2.60;;
52708;SDS011;38606;52.986;6.980;2023-01-04T08:50:58;2.50;;;2.30;;
52708;SDS011;38606;52.986;6.980;2023-01-04T08:53:28;2.72;;;2.38;;
52708;SDS011;38606;52.986;6.980;2023-01-04T08:55:54;6.80;;;2.67;;
52708;SDS011;38606;52.986;6.980;2023-01-04T08:58:21;3.00;;;2.60;;
52708;SDS011;38606;52.986;6.980;2023-01-04T09:00:47;4.15;;;2.80;;
52708;SDS011;38606;52.986;6.980;2023-01-04T09:03:13;3.22;;;2.65;;
52708;SDS011;38606;52.986;6.980;2023-01-04T09:05:39;3.00;;;2.30;;
52708;SDS011;38606;52.986;6.980;2023-01-04T09:08:05;4.00;;;2.20;;
52708;SDS011;38606;52.986;6.980;2023-01-04T09:10:31;2.17;;;1.90;;
52708;SDS011;38606;52.986;6.980;2023-01-04T09:12:57;3.60;;;2.17;;
52708;SDS011;38606;52.986;6.980;2023-01-04T09:15:23;3.28;;;2.10;;
52708;SDS011;38606;52.986;6.980;2023-01-04T09:17:49;1.83;;;1.58;;
52708;SDS011;38606;52.986;6.980;2023-01-04T09:20:15;3.28;;;2.10;;
52708;SDS011;38606;52.986;6.980;2023-01-04T09:22:41;2.60;;;2.05;;
52708;SDS011;38606;52.986;6.980;2023-01-04T09:25:06;1.55;;;1.45;;
52708;SDS011;38606;52.986;6.980;2023-01-04T09:27:32;1.88;;;1.77;;
52708;SDS011;38606;52.986;6.980;2023-01-04T09:29:58;1.65;;;1.55;;
52708;SDS011;38606;52.986;6.980;2023-01-04T09:32:24;1.50;;;1.40;;
52708;SDS011;38606;52.986;6.980;2023-01-04T09:34:50;1.80;;;1.52;;
52708;SDS011;38606;52.986;6.980;2023-01-04T09:37:16;2.40;;;1.23;;
52708;SDS011;38606;52.986;6.980;2023-01-04T09:39:42;1.42;;;1.30;;
52708;SDS011;38606;52.986;6.980;2023-01-04T09:42:41;3.45;;;1.40;;
52708;SDS011;38606;52.986;6.980;2023-01-04T09:47:54;1.90;;;1.08;;
52708;SDS011;38606;52.986;6.980;2023-01-04T09:50:33;1.20;;;1.10;;
52708;SDS011;38606;52.986;6.980;2023-01-04T09:55:44;1.80;;;0.87;;
52708;SDS011;38606;52.986;6.980;2023-01-04T09:58:31;2.03;;;0.90;;
52708;SDS011;38606;52.986;6.980;2023-01-04T10:01:06;1.02;;;0.90;;
52708;SDS011;38606;52.986;6.980;2023-01-04T10:03:41;0.85;;;0.73;;
52708;SDS011;38606;52.986;6.980;2023-01-04T10:06:33;1.10;;;1.00;;
52708;SDS011;38606;52.986;6.980;2023-01-04T10:09:01;0.90;;;0.90;;
52708;SDS011;38606;52.986;6.980;2023-01-04T10:33:24;0.82;;;0.70;;
52708;SDS011;38606;52.986;6.980;2023-01-04T10:36:09;1.85;;;0.90;;
52708;SDS011;38606;52.986;6.980;2023-01-04T10:38:45;3.30;;;0.95;;
52708;SDS011;38606;52.986;6.980;2023-01-04T10:41:20;3.92;;;1.25;;
52708;SDS011;38606;52.986;6.980;2023-01-04T10:51:39;6.35;;;1.50;;
52708;SDS011;38606;52.986;6.980;2023-01-04T10:56:46;5.78;;;1.58;;
52708;SDS011;38606;52.986;6.980;2023-01-04T11:01:57;5.20;;;1.40;;
52708;SDS011;38606;52.986;6.980;2023-01-04T11:04:44;10.32;;;1.70;;
52708;SDS011;38606;52.986;6.980;2023-01-04T11:07:26;10.20;;;1.52;;
52708;SDS011;38606;52.986;6.980;2023-01-04T11:12:51;14.55;;;2.10;;
52708;SDS011;38606;52.986;6.980;2023-01-04T11:15:17;9.75;;;2.97;;
52708;SDS011;38606;52.986;6.980;2023-01-04T11:17:43;12.48;;;2.60;;
52708;SDS011;38606;52.986;6.980;2023-01-04T11:20:10;14.15;;;2.20;;
52708;SDS011;38606;52.986;6.980;2023-01-04T11:22:38;13.80;;;2.58;;
52708;SDS011;38606;52.986;6.980;2023-01-04T11:25:09;18.38;;;2.67;;
52708;SDS011;38606;52.986;6.980;2023-01-04T11:27:47;18.80;;;3.40;;
52708;SDS011;38606;52.986;6.980;2023-01-04T11:30:23;15.93;;;2.55;;
52708;SDS011;38606;52.986;6.980;2023-01-04T11:33:02;22.30;;;2.95;;
52708;SDS011;38606;52.986;6.980;2023-01-04T11:35:44;15.63;;;2.47;;
52708;SDS011;38606;52.986;6.980;2023-01-04T11:40:40;19.17;;;3.08;;
52708;SDS011;38606;52.986;6.980;2023-01-04T11:43:10;24.92;;;3.00;;
52708;SDS011;38606;52.986;6.980;2023-01-04T11:45:52;21.45;;;3.17;;
52708;SDS011;38606;52.986;6.980;2023-01-04T11:48:31;22.00;;;3.13;;
52708;SDS011;38606;52.986;6.980;2023-01-04T11:51:02;16.50;;;2.88;;
52708;SDS011;38606;52.986;6.980;2023-01-04T11:53:30;22.83;;;2.80;;
52708;SDS011;38606;52.986;6.980;2023-01-04T11:56:11;20.38;;;3.03;;
52708;SDS011;38606;52.986;6.980;2023-01-04T11:58:43;19.90;;;2.80;;
52708;SDS011;38606;52.986;6.980;2023-01-04T12:01:27;20.98;;;3.08;;
52708;SDS011;38606;52.986;6.980;2023-01-04T12:03:53;16.80;;;3.65;;
52708;SDS011;38606;52.986;6.980;2023-01-04T12:09:14;19.05;;;2.75;;
52708;SDS011;38606;52.986;6.980;2023-01-04T12:11:51;14.00;;;2.50;;
52708;SDS011;38606;52.986;6.980;2023-01-04T12:14:30;16.65;;;2.70;;
52708;SDS011;38606;52.986;6.980;2023-01-04T12:19:39;16.58;;;2.70;;
52708;SDS011;38606;52.986;6.980;2023-01-04T12:22:15;13.00;;;2.05;;
52708;SDS011;38606;52.986;6.980;2023-01-04T12:24:45;13.07;;;2.10;;
52708;SDS011;38606;52.986;6.980;2023-01-04T12:27:12;14.00;;;2.38;;
52708;SDS011;38606;52.986;6.980;2023-01-04T12:29:53;14.23;;;2.15;;
52708;SDS011;38606;52.986;6.980;2023-01-04T12:34:52;12.00;;;2.10;;
52708;SDS011;38606;52.986;6.980;2023-01-04T12:43:36;10.43;;;1.80;;
52708;SDS011;38606;52.986;6.980;2023-01-04T12:46:40;8.70;;;1.45;;
52708;SDS011;38606;52.986;6.980;2023-01-04T13:02:32;9.25;;;1.70;;
52708;SDS011;38606;52.986;6.980;2023-01-04T13:07:53;5.38;;;1.10;;
52708;SDS011;38606;52.986;6.980;2023-01-04T13:10:39;6.35;;;0.98;;
52708;SDS011;38606;52.986;6.980;2023-01-04T13:18:50;7.30;;;1.58;;
52708;SDS011;38606;52.986;6.980;2023-01-04T13:21:41;9.07;;;1.70;;
52708;SDS011;38606;52.986;6.980;2023-01-04T13:24:25;7.55;;;1.70;;
52708;SDS011;38606;52.986;6.980;2023-01-04T13:27:05;9.05;;;1.85;;
52708;SDS011;38606;52.986;6.980;2023-01-04T13:29:34;13.38;;;2.13;;
52708;SDS011;38606;52.986;6.980;2023-01-04T13:32:11;9.85;;;2.15;;
52708;SDS011;38606;52.986;6.980;2023-01-04T13:34:50;13.50;;;2.00;;
52708;SDS011;38606;52.986;6.980;2023-01-04T13:37:27;11.75;;;1.70;;
52708;SDS011;38606;52.986;6.980;2023-01-04T13:42:46;11.63;;;2.25;;
52708;SDS011;38606;52.986;6.980;2023-01-04T13:45:40;17.17;;;2.60;;
52708;SDS011;38606;52.986;6.980;2023-01-04T13:48:20;15.65;;;2.72;;
52708;SDS011;38606;52.986;6.980;2023-01-04T13:51:01;15.30;;;2.35;;
52708;SDS011;38606;52.986;6.980;2023-01-04T13:53:38;20.95;;;3.58;;
52708;SDS011;38606;52.986;6.980;2023-01-04T13:56:04;19.88;;;2.92;;
52708;SDS011;38606;52.986;6.980;2023-01-04T13:58:33;16.33;;;3.58;;
52708;SDS011;38606;52.986;6.980;2023-01-04T14:03:29;14.73;;;2.80;;
52708;SDS011;38606;52.986;6.980;2023-01-04T14:06:02;16.08;;;3.03;;
52708;SDS011;38606;52.986;6.980;2023-01-04T14:17:31;16.98;;;3.13;;
52708;SDS011;38606;52.986;6.980;2023-01-04T14:22:40;17.52;;;3.17;;
52708;SDS011;38606;52.986;6.980;2023-01-04T14:30:44;19.42;;;2.75;;
52708;SDS011;38606;52.986;6.980;2023-01-04T14:33:17;20.92;;;3.25;;
52708;SDS011;38606;52.986;6.980;2023-01-04T14:36:20;19.20;;;3.33;;
52708;SDS011;38606;52.986;6.980;2023-01-04T14:38:55;18.93;;;3.30;;
52708;SDS011;38606;52.986;6.980;2023-01-04T14:46:25;23.58;;;3.83;;
52708;SDS011;38606;52.986;6.980;2023-01-04T14:48:52;17.77;;;3.50;;
52708;SDS011;38606;52.986;6.980;2023-01-04T14:51:20;26.77;;;3.55;;
52708;SDS011;38606;52.986;6.980;2023-01-04T14:53:49;20.90;;;3.30;;
52708;SDS011;38606;52.986;6.980;2023-01-04T14:56:16;20.60;;;3.42;;
52708;SDS011;38606;52.986;6.980;2023-01-04T14:58:42;26.33;;;4.07;;
52708;SDS011;38606;52.986;6.980;2023-01-04T15:01:09;18.58;;;3.40;;
52708;SDS011;38606;52.986;6.980;2023-01-04T15:03:35;22.70;;;3.53;;
52708;SDS011;38606;52.986;6.980;2023-01-04T15:06:01;17.27;;;2.88;;
52708;SDS011;38606;52.986;6.980;2023-01-04T15:08:28;20.15;;;3.17;;
52708;SDS011;38606;52.986;6.980;2023-01-04T15:10:54;15.45;;;3.60;;
52708;SDS011;38606;52.986;6.980;2023-01-04T15:13:20;22.08;;;3.72;;
52708;SDS011;38606;52.986;6.980;2023-01-04T15:15:46;21.27;;;4.07;;
52708;SDS011;38606;52.986;6.980;2023-01-04T15:18:12;26.00;;;6.20;;
52708;SDS011;38606;52.986;6.980;2023-01-04T15:20:38;23.42;;;4.57;;
52708;SDS011;38606;52.986;6.980;2023-01-04T15:23:04;20.73;;;5.18;;
52708;SDS011;38606;52.986;6.980;2023-01-04T15:25:30;21.05;;;4.05;;
52708;SDS011;38606;52.986;6.980;2023-01-04T15:27:56;19.65;;;3.42;;
52708;SDS011;38606;52.986;6.980;2023-01-04T15:30:22;25.02;;;3.78;;
52708;SDS011;38606;52.986;6.980;2023-01-04T15:32:48;22.88;;;3.38;;
52708;SDS011;38606;52.986;6.980;2023-01-04T15:35:14;25.85;;;3.72;;
52708;SDS011;38606;52.986;6.980;2023-01-04T15:37:44;27.45;;;3.40;;
52708;SDS011;38606;52.986;6.980;2023-01-04T15:40:11;26.98;;;3.58;;
52708;SDS011;38606;52.986;6.980;2023-01-04T15:42:39;20.95;;;3.53;;
52708;SDS011;38606;52.986;6.980;2023-01-04T15:47:50;22.75;;;3.35;;
52708;SDS011;38606;52.986;6.980;2023-01-04T15:50:16;22.08;;;3.20;;
52708;SDS011;38606;52.986;6.980;2023-01-04T15:52:42;21.48;;;3.00;;
52708;SDS011;38606;52.986;6.980;2023-01-04T15:55:08;18.05;;;3.22;;
52708;SDS011;38606;52.986;6.980;2023-01-04T15:57:34;17.63;;;2.40;;
52708;SDS011;38606;52.986;6.980;2023-01-04T16:00:00;18.08;;;3.17;;
52708;SDS011;38606;52.986;6.980;2023-01-04T16:02:27;19.95;;;3.13;;
52708;SDS011;38606;52.986;6.980;2023-01-04T16:04:52;19.88;;;3.38;;
52708;SDS011;38606;52.986;6.980;2023-01-04T16:07:18;17.48;;;2.78;;
52708;SDS011;38606;52.986;6.980;2023-01-04T16:09:44;20.98;;;3.38;;
52708;SDS011;38606;52.986;6.980;2023-01-04T16:12:09;13.95;;;2.97;;
52708;SDS011;38606;52.986;6.980;2023-01-04T16:14:54;15.95;;;2.92;;
52708;SDS011;38606;52.986;6.980;2023-01-04T16:17:19;19.50;;;3.75;;
52708;SDS011;38606;52.986;6.980;2023-01-04T16:19:45;21.45;;;3.65;;
52708;SDS011;38606;52.986;6.980;2023-01-04T16:22:11;25.13;;;4.55;;
52708;SDS011;38606;52.986;6.980;2023-01-04T16:24:37;21.45;;;3.10;;
52708;SDS011;38606;52.986;6.980;2023-01-04T16:27:02;21.70;;;3.50;;
52708;SDS011;38606;52.986;6.980;2023-01-04T16:29:28;19.80;;;3.17;;
52708;SDS011;38606;52.986;6.980;2023-01-04T16:31:54;22.30;;;3.83;;
52708;SDS011;38606;52.986;6.980;2023-01-04T16:34:20;19.75;;;3.25;;
52708;SDS011;38606;52.986;6.980;2023-01-04T16:36:47;18.45;;;3.20;;
52708;SDS011;38606;52.986;6.980;2023-01-04T16:39:13;18.27;;;3.15;;
52708;SDS011;38606;52.986;6.980;2023-01-04T16:41:39;25.17;;;3.90;;
52708;SDS011;38606;52.986;6.980;2023-01-04T16:44:05;22.65;;;3.20;;
52708;SDS011;38606;52.986;6.980;2023-01-04T16:46:32;24.42;;;3.25;;
52708;SDS011;38606;52.986;6.980;2023-01-04T16:51:30;20.48;;;3.80;;
52708;SDS011;38606;52.986;6.980;2023-01-04T16:53:56;24.73;;;3.35;;
52708;SDS011;38606;52.986;6.980;2023-01-04T16:56:23;20.70;;;2.78;;
52708;SDS011;38606;52.986;6.980;2023-01-04T16:58:49;22.83;;;2.97;;
52708;SDS011;38606;52.986;6.980;2023-01-04T17:01:17;20.45;;;3.15;;
52708;SDS011;38606;52.986;6.980;2023-01-04T17:03:48;21.98;;;3.17;;
52708;SDS011;38606;52.986;6.980;2023-01-04T17:06:18;27.95;;;3.17;;
52708;SDS011;38606;52.986;6.980;2023-01-04T17:08:46;17.23;;;3.17;;
52708;SDS011;38606;52.986;6.980;2023-01-04T17:11:21;23.05;;;3.55;;
52708;SDS011;38606;52.986;6.980;2023-01-04T17:13:51;21.30;;;3.20;;
52708;SDS011;38606;52.986;6.980;2023-01-04T17:16:18;18.13;;;3.15;;
52708;SDS011;38606;52.986;6.980;2023-01-04T17:18:48;24.98;;;3.72;;
52708;SDS011;38606;52.986;6.980;2023-01-04T17:21:16;18.33;;;3.20;;
52708;SDS011;38606;52.986;6.980;2023-01-04T17:23:44;18.83;;;4.22;;
52708;SDS011;38606;52.986;6.980;2023-01-04T17:26:14;19.45;;;3.17;;
52708;SDS011;38606;52.986;6.980;2023-01-04T17:28:44;20.55;;;3.58;;
52708;SDS011;38606;52.986;6.980;2023-01-04T17:31:14;17.55;;;3.22;;
52708;SDS011;38606;52.986;6.980;2023-01-04T17:33:45;24.00;;;3.65;;